Time;durP1;ratioP1;P1;durP2;ratioP2;P2;SDS_P1;SDS_P2;PMS_P1;PMS_P2;Temp;Humidity;BMP_temperature;BMP_pressure;BME280_temperature;BME280_humidity;BME280_pressure;Samples;Min_cycle;Max_cycle;Signal;HPM_P1;HPM_P2
2023/08/07 00:00:32;;;;;;;0.30;0.30;;;11.90;99.90;;;;;;5056047;28;20194;-70
2023/08/07 00:02:58;;;;;;;0.30;0.30;;;11.40;99.90;;;;;;5055562;28;20209;-69
2023/08/07 00:05:24;;;;;;;0.50;0.40;;;11.60;99.90;;;;;;5055516;28;20220;-70
2023/08/07 00:07:49;;;;;;;0.50;0.50;;;11.60;99.90;;;;;;5055815;28;20253;-69
2023/08/07 00:10:15;;;;;;;2.27;0.53;;;11.70;99.90;;;;;;5055547;28;20209;-69
2023/08/07 00:12:41;;;;;;;0.50;0.50;;;;;;;;;;5055172;28;20196;-70
2023/08/07 00:15:08;;;;;;;1.13;1.03;;;11.40;99.90;;;;;;5055652;28;20158;-70
2023/08/07 00:17:33;;;;;;;0.40;0.40;;;11.80;99.90;;;;;;5055436;28;20397;-68
2023/08/07 00:19:59;;;;;;;1.57;0.80;;;11.80;99.90;;;;;;5055366;28;20414;-69
2023/08/07 00:22:25;;;;;;;0.47;0.47;;;11.70;99.90;;;;;;5055261;28;20241;-70
2023/08/07 00:24:51;;;;;;;0.40;0.40;;;12.10;99.90;;;;;;5055805;28;20170;-69
2023/08/07 00:27:17;;;;;;;5.57;2.40;;;;;;;;;;5055324;28;20397;-69
2023/08/07 00:29:42;;;;;;;0.40;0.40;;;11.90;99.90;;;;;;5055130;28;20524;-70
2023/08/07 00:32:08;;;;;;;1.33;0.70;;;11.80;99.90;;;;;;5054875;28;20427;-70
2023/08/07 00:34:34;;;;;;;0.60;0.60;;;11.90;99.90;;;;;;5055003;28;20222;-70
2023/08/07 00:37:00;;;;;;;0.30;0.30;;;12.20;99.90;;;;;;5055082;28;20185;-70
2023/08/07 00:39:26;;;;;;;0.57;0.57;;;12.20;99.90;;;;;;5055216;28;20514;-69
2023/08/07 00:41:51;;;;;;;12.93;0.97;;;11.80;99.90;;;;;;5054726;28;20428;-70
2023/08/07 00:44:17;;;;;;;0.60;0.57;;;11.70;99.90;;;;;;5054886;28;20193;-69
2023/08/07 00:46:43;;;;;;;0.40;0.40;;;12.10;99.90;;;;;;5054857;28;20190;-70
2023/08/07 00:49:11;;;;;;;0.90;0.77;;;11.80;99.90;;;;;;5054711;28;20204;-70
2023/08/07 00:51:38;;;;;;;0.67;0.67;;;12.00;99.90;;;;;;5054542;28;20226;-70
2023/08/07 00:54:05;;;;;;;0.60;0.60;;;11.80;99.90;;;;;;5054743;28;20456;-69
2023/08/07 00:56:31;;;;;;;0.40;0.40;;;12.00;99.90;;;;;;5054577;28;20774;-70
2023/08/07 00:59:01;;;;;;;0.90;0.90;;;11.80;99.90;;;;;;5053975;28;20409;-70
2023/08/07 01:01:27;;;;;;;0.97;0.77;;;11.70;99.90;;;;;;5054305;28;20853;-69
2023/08/07 01:03:53;;;;;;;0.40;0.40;;;11.80;99.90;;;;;;5054699;28;20435;-70
2023/08/07 01:06:18;;;;;;;0.77;0.77;;;11.70;99.90;;;;;;5054584;28;20884;-69
2023/08/07 01:08:45;;;;;;;2.00;1.53;;;11.90;99.90;;;;;;5054463;28;20820;-70
2023/08/07 01:11:34;;;;;;;0.93;0.93;;;12.00;99.90;;;;;;5054285;28;20221;-68
2023/08/07 01:14:33;;;;;;;0.70;0.70;;;11.80;99.90;;;;;;5054419;28;20467;-70
2023/08/07 01:17:12;;;;;;;0.93;0.80;;;11.90;99.90;;;;;;5054187;28;20767;-70
2023/08/07 01:19:38;;;;;;;5.50;1.63;;;12.00;99.90;;;;;;5054345;28;20417;-70
2023/08/07 01:22:12;;;;;;;0.37;0.37;;;11.90;99.90;;;;;;5053969;28;20472;-69
2023/08/07 01:24:41;;;;;;;1.30;0.83;;;11.80;99.90;;;;;;5054385;28;20404;-69
2023/08/07 01:27:06;;;;;;;0.40;0.40;;;11.80;99.90;;;;;;5054279;28;20498;-70
2023/08/07 01:29:42;;;;;;;0.50;0.50;;;11.90;99.90;;;;;;5053964;28;20885;-69
2023/08/07 01:32:09;;;;;;;0.73;0.73;;;11.90;99.90;;;;;;5053801;28;20251;-69
2023/08/07 01:34:38;;;;;;;0.40;0.40;;;11.70;99.90;;;;;;5054008;28;20452;-70
2023/08/07 01:37:06;;;;;;;1.07;0.70;;;11.90;99.90;;;;;;5054148;28;20409;-70
2023/08/07 01:39:35;;;;;;;0.77;0.43;;;11.80;99.90;;;;;;5053948;28;20828;-70
2023/08/07 01:42:02;;;;;;;3.83;0.63;;;11.90;99.90;;;;;;5053526;28;20433;-70
2023/08/07 01:44:29;;;;;;;0.30;0.30;;;11.80;99.90;;;;;;5053710;28;20425;-70
2023/08/07 01:46:54;;;;;;;0.40;0.40;;;11.80;99.90;;;;;;5053960;28;20431;-69
2023/08/07 01:49:20;;;;;;;0.83;0.83;;;11.80;99.90;;;;;;5053920;28;20647;-69
2023/08/07 01:51:45;;;;;;;1.10;1.07;;;11.90;99.90;;;;;;5053570;28;20276;-70
2023/08/07 01:54:11;;;;;;;1.23;1.13;;;12.00;99.90;;;;;;5053660;28;20202;-70
2023/08/07 01:56:37;;;;;;;1.17;0.77;;;12.00;99.90;;;;;;5053751;28;20158;-70
2023/08/07 01:59:02;;;;;;;1.80;1.53;;;12.10;99.90;;;;;;5052386;28;20176;-70
2023/08/07 02:01:28;;;;;;;0.40;0.40;;;11.90;99.90;;;;;;5053368;28;20196;-70
2023/08/07 02:03:55;;;;;;;0.50;0.50;;;11.90;99.90;;;;;;5053416;28;20179;-69
2023/08/07 02:06:21;;;;;;;0.70;0.70;;;11.80;99.90;;;;;;5053761;28;20185;-69
2023/08/07 02:08:47;;;;;;;11.07;1.07;;;;;;;;;;5053172;28;20411;-70
2023/08/07 02:11:12;;;;;;;0.70;0.70;;;11.90;99.90;;;;;;5052630;28;20428;-71
2023/08/07 02:13:38;;;;;;;6.43;3.13;;;11.70;99.90;;;;;;5053238;28;20499;-70
2023/08/07 02:16:04;;;;;;;0.83;0.60;;;11.90;99.90;;;;;;5053322;28;20170;-70
2023/08/07 02:18:29;;;;;;;0.40;0.40;;;11.90;99.90;;;;;;5053327;28;20170;-70
2023/08/07 02:20:55;;;;;;;0.40;0.40;;;12.10;99.90;;;;;;5052865;28;20189;-70
2023/08/07 02:23:20;;;;;;;0.97;0.90;;;12.10;99.90;;;;;;5053335;28;20535;-70
2023/08/07 02:25:46;;;;;;;0.60;0.60;;;12.00;99.90;;;;;;5053191;28;20654;-69
2023/08/07 02:28:12;;;;;;;0.70;0.50;;;11.50;99.90;;;;;;5053316;28;20501;-70
2023/08/07 02:30:38;;;;;;;0.40;0.40;;;;;;;;;;5053052;28;20428;-69
2023/08/07 02:33:04;;;;;;;0.90;0.90;;;11.60;99.90;;;;;;5053186;28;20282;-70
2023/08/07 02:35:29;;;;;;;0.60;0.50;;;11.50;99.90;;;;;;5053090;28;20485;-70
2023/08/07 02:37:55;;;;;;;0.40;0.40;;;11.40;99.90;;;;;;5053275;28;20601;-70
2023/08/07 02:40:20;;;;;;;1.00;1.00;;;11.50;99.90;;;;;;5053133;28;20186;-70
2023/08/07 02:42:46;;;;;;;0.40;0.40;;;11.50;99.90;;;;;;5053216;28;20166;-68
2023/08/07 02:45:12;;;;;;;0.60;0.50;;;11.70;99.90;;;;;;5053019;28;20170;-70
2023/08/07 02:47:37;;;;;;;0.97;0.97;;;11.60;99.90;;;;;;5053050;28;20201;-69
2023/08/07 02:50:03;;;;;;;1.40;1.30;;;11.70;99.90;;;;;;5052717;28;20185;-70
2023/08/07 02:52:29;;;;;;;1.30;1.20;;;11.50;99.90;;;;;;5052823;28;20239;-69
2023/08/07 02:54:55;;;;;;;0.97;0.97;;;11.90;99.90;;;;;;5053060;28;20426;-69
2023/08/07 02:57:21;;;;;;;2.50;1.83;;;11.80;99.90;;;;;;5053105;28;20405;-70
2023/08/07 02:59:46;;;;;;;6.93;0.83;;;11.40;99.90;;;;;;5052989;28;20511;-70
2023/08/07 03:02:12;;;;;;;0.40;0.40;;;11.70;99.90;;;;;;5052714;28;20592;-70
2023/08/07 03:04:38;;;;;;;1.30;1.30;;;;;;;;;;5052827;28;20657;-70
2023/08/07 03:07:04;;;;;;;0.40;0.40;;;11.50;99.90;;;;;;5052804;28;20720;-69
2023/08/07 03:09:29;;;;;;;1.57;0.60;;;11.60;99.90;;;;;;5053023;28;20397;-70
2023/08/07 03:11:55;;;;;;;0.37;0.37;;;11.60;99.90;;;;;;5052487;28;20432;-69
2023/08/07 03:14:21;;;;;;;0.97;0.90;;;11.50;99.90;;;;;;5052609;28;20196;-70
2023/08/07 03:16:46;;;;;;;0.70;0.70;;;11.60;99.90;;;;;;5052752;28;20428;-70
2023/08/07 03:19:12;;;;;;;0.30;0.30;;;11.40;99.90;;;;;;5052248;28;20631;-70
2023/08/07 03:21:38;;;;;;;4.03;1.87;;;;;;;;;;5054486;28;20244;-69
2023/08/07 03:24:04;;;;;;;1.50;0.97;;;11.80;99.90;;;;;;5056361;28;20177;-71
2023/08/07 03:26:30;;;;;;;1.17;1.07;;;11.60;99.90;;;;;;5056384;28;20407;-71
2023/08/07 03:28:55;;;;;;;0.50;0.50;;;11.40;99.90;;;;;;5056456;28;20257;-69
2023/08/07 03:31:21;;;;;;;0.70;0.70;;;11.80;99.90;;;;;;5056110;28;20182;-71
2023/08/07 03:33:47;;;;;;;0.47;0.47;;;11.50;99.90;;;;;;5056146;28;20190;-70
2023/08/07 03:36:12;;;;;;;0.50;0.50;;;11.70;99.90;;;;;;5056331;28;20275;-69
2023/08/07 03:38:38;;;;;;;0.83;0.73;;;11.50;99.90;;;;;;5056107;28;20578;-70
2023/08/07 03:41:04;;;;;;;0.63;0.63;;;11.80;99.90;;;;;;5055879;28;20669;-70
2023/08/07 03:43:29;;;;;;;1.10;1.07;;;11.70;99.90;;;;;;5056294;28;20170;-70
2023/08/07 03:45:59;;;;;;;0.87;0.50;;;;;;;;;;5056140;28;20415;-70
2023/08/07 03:48:24;;;;;;;2.08;1.98;;;11.70;99.90;;;;;;5056097;28;20696;-69
2023/08/07 03:50:50;;;;;;;1.63;1.63;;;11.60;99.90;;;;;;5055669;28;20256;-70
2023/08/07 03:53:16;;;;;;;0.40;0.40;;;11.60;99.90;;;;;;5055835;28;20297;-70
2023/08/07 03:55:41;;;;;;;0.60;0.60;;;11.60;99.90;;;;;;5055855;28;20174;-70
2023/08/07 03:58:07;;;;;;;0.97;0.63;;;11.80;99.90;;;;;;5055799;28;20170;-71
2023/08/07 04:00:33;;;;;;;2.10;0.67;;;11.60;99.90;;;;;;5055727;28;20460;-70
2023/08/07 04:02:59;;;;;;;0.40;0.40;;;11.90;99.90;;;;;;5055654;28;20503;-70
2023/08/07 04:05:24;;;;;;;0.40;0.40;;;11.50;99.90;;;;;;5055680;28;20173;-70
2023/08/07 04:07:50;;;;;;;1.00;1.00;;;11.60;99.90;;;;;;5055634;28;20642;-70
2023/08/07 04:10:15;;;;;;;0.50;0.50;;;11.70;99.90;;;;;;5055467;28;20219;-69
2023/08/07 04:12:41;;;;;;;0.70;0.70;;;11.80;99.90;;;;;;5055283;28;20668;-70
2023/08/07 04:15:08;;;;;;;0.30;0.30;;;11.60;99.90;;;;;;5055649;28;20259;-69
2023/08/07 04:17:34;;;;;;;0.30;0.30;;;11.70;99.90;;;;;;5055548;28;20193;-68
2023/08/07 04:20:00;;;;;;;0.50;0.50;;;11.50;99.90;;;;;;5055532;28;20405;-70
2023/08/07 04:22:25;;;;;;;1.17;0.70;;;11.70;99.90;;;;;;5055253;28;20198;-69
2023/08/07 04:24:51;;;;;;;1.90;1.80;;;11.30;99.90;;;;;;5055358;28;20611;-70
2023/08/07 04:27:17;;;;;;;0.40;0.40;;;;;;;;;;5055301;28;20262;-69
2023/08/07 04:29:43;;;;;;;1.10;1.10;;;12.20;99.90;;;;;;5055320;28;20401;-69
2023/08/07 04:32:08;;;;;;;0.40;0.40;;;11.30;99.90;;;;;;5054209;28;20599;-70
2023/08/07 04:34:35;;;;;;;0.57;0.57;;;11.50;99.90;;;;;;5054718;28;20216;-70
2023/08/07 04:37:01;;;;;;;1.07;0.97;;;;;;;;;;5055000;28;20167;-70
2023/08/07 04:39:27;;;;;;;0.50;0.50;;;11.70;99.90;;;;;;5054942;28;20442;-70
2023/08/07 04:41:52;;;;;;;0.50;0.50;;;11.60;99.90;;;;;;5054695;28;20925;-69
2023/08/07 04:44:18;;;;;;;0.50;0.50;;;11.50;99.90;;;;;;5055063;28;20686;-69
2023/08/07 04:46:44;;;;;;;2.80;1.33;;;;;;;;;;5055223;28;20196;-69
2023/08/07 04:49:09;;;;;;;2.33;0.60;;;11.30;99.90;;;;;;5054631;28;20197;-70
2023/08/07 04:51:36;;;;;;;0.40;0.40;;;11.40;99.90;;;;;;5054713;28;20429;-70
2023/08/07 04:54:01;;;;;;;1.67;1.57;;;11.20;99.90;;;;;;5054695;28;20198;-70
2023/08/07 04:56:27;;;;;;;0.57;0.57;;;11.10;99.90;;;;;;5054756;28;20588;-70
2023/08/07 04:58:53;;;;;;;0.70;0.70;;;11.50;99.90;;;;;;5054759;28;20170;-70
2023/08/07 05:01:18;;;;;;;1.00;1.00;;;11.50;99.90;;;;;;5054457;28;20193;-70
2023/08/07 05:03:44;;;;;;;1.27;1.27;;;11.50;99.90;;;;;;5054565;28;20188;-69
2023/08/07 05:06:10;;;;;;;1.57;0.63;;;11.50;99.90;;;;;;5054686;28;20257;-69
2023/08/07 05:08:35;;;;;;;0.40;0.40;;;11.40;99.90;;;;;;5054460;28;20170;-70
2023/08/07 05:11:01;;;;;;;1.23;1.13;;;11.60;99.90;;;;;;5054179;28;20428;-70
2023/08/07 05:13:27;;;;;;;0.80;0.80;;;11.50;99.90;;;;;;5054456;28;20649;-70
2023/08/07 05:15:52;;;;;;;0.87;0.40;;;11.60;99.90;;;;;;5054479;28;20249;-70
2023/08/07 05:18:19;;;;;;;0.87;0.87;;;11.30;99.90;;;;;;5054261;28;20174;-70
2023/08/07 05:20:44;;;;;;;1.30;1.23;;;11.30;99.90;;;;;;5053983;28;20177;-70
2023/08/07 05:23:10;;;;;;;0.50;0.40;;;11.30;99.90;;;;;;5054231;28;20919;-68
2023/08/07 05:25:37;;;;;;;0.47;0.47;;;11.40;99.90;;;;;;5054243;28;20236;-69
2023/08/07 05:28:03;;;;;;;0.70;0.70;;;;;;;;;;5054168;28;20911;-70
2023/08/07 05:30:28;;;;;;;1.17;0.93;;;11.50;99.90;;;;;;5054133;28;20503;-69
2023/08/07 05:32:54;;;;;;;0.77;0.50;;;11.50;99.90;;;;;;5053924;28;20479;-70
2023/08/07 05:35:20;;;;;;;2.97;0.50;;;;;;;;;;5053895;28;20189;-70
2023/08/07 05:37:46;;;;;;;0.70;0.70;;;11.90;99.90;;;;;;5053945;28;20172;-69
2023/08/07 05:40:11;;;;;;;1.33;0.93;;;11.90;99.90;;;;;;5053814;28;20837;-70
2023/08/07 05:42:37;;;;;;;0.43;0.43;;;12.10;99.90;;;;;;5053759;28;20238;-69
2023/08/07 05:45:04;;;;;;;1.43;1.43;;;12.50;99.90;;;;;;5053783;28;20162;-70
2023/08/07 05:47:30;;;;;;;1.33;1.23;;;12.30;99.90;;;;;;5053709;28;20409;-70
2023/08/07 05:49:55;;;;;;;0.40;0.40;;;12.40;99.90;;;;;;5053506;28;20478;-69
2023/08/07 05:52:21;;;;;;;0.37;0.37;;;12.40;99.90;;;;;;5053472;28;20406;-70
2023/08/07 05:54:47;;;;;;;0.63;0.63;;;12.30;99.90;;;;;;5053716;28;20165;-71
2023/08/07 05:57:13;;;;;;;1.70;1.37;;;12.20;99.90;;;;;;5053727;28;20411;-70
2023/08/07 05:59:40;;;;;;;1.07;0.73;;;12.40;99.90;;;;;;5053474;28;20466;-69
2023/08/07 06:02:06;;;;;;;0.70;0.70;;;12.30;99.90;;;;;;5053242;28;20185;-70
2023/08/07 06:04:32;;;;;;;1.13;1.03;;;12.50;99.90;;;;;;5053456;28;20406;-70
2023/08/07 06:06:57;;;;;;;3.33;0.80;;;12.90;99.90;;;;;;5053607;28;20487;-71
2023/08/07 06:09:23;;;;;;;1.13;0.70;;;12.80;99.90;;;;;;5053446;28;20218;-70
2023/08/07 06:11:49;;;;;;;0.70;0.70;;;12.30;99.90;;;;;;5053106;28;20196;-70
2023/08/07 06:14:14;;;;;;;0.80;0.80;;;12.50;99.90;;;;;;5053481;28;20209;-70
2023/08/07 06:16:40;;;;;;;5.10;0.60;;;12.80;99.90;;;;;;5053429;28;20239;-69
2023/08/07 06:19:05;;;;;;;0.50;0.50;;;13.00;99.90;;;;;;5053264;28;20179;-69
2023/08/07 06:21:31;;;;;;;4.90;1.30;;;;;;;;;;5053168;28;20196;-70
2023/08/07 06:23:57;;;;;;;0.43;0.43;;;12.70;99.90;;;;;;5053228;28;20654;-71
2023/08/07 06:26:23;;;;;;;0.30;0.30;;;12.30;99.90;;;;;;5053285;28;20409;-71
2023/08/07 06:28:48;;;;;;;0.50;0.50;;;12.70;99.90;;;;;;5053350;28;20170;-70
2023/08/07 06:31:15;;;;;;;0.50;0.50;;;12.40;99.90;;;;;;5052942;28;20318;-69
2023/08/07 06:33:41;;;;;;;1.07;1.07;;;12.20;99.90;;;;;;5053358;28;20200;-69
2023/08/07 06:36:10;;;;;;;0.50;0.50;;;12.00;99.90;;;;;;5053081;28;20438;-70
2023/08/07 06:38:36;;;;;;;0.40;0.40;;;12.30;99.90;;;;;;5053371;28;20181;-70
2023/08/07 06:41:02;;;;;;;0.47;0.47;;;12.30;99.90;;;;;;5052867;28;20777;-70
2023/08/07 06:43:28;;;;;;;0.70;0.70;;;12.30;99.90;;;;;;5053199;28;20426;-70
2023/08/07 06:45:54;;;;;;;0.40;0.40;;;12.40;99.90;;;;;;5053240;28;20416;-70
2023/08/07 06:48:20;;;;;;;0.50;0.50;;;12.60;99.90;;;;;;5053033;28;20178;-70
2023/08/07 06:50:50;;;;;;;0.60;0.60;;;12.60;99.90;;;;;;5052158;28;20455;-70
2023/08/07 06:53:16;;;;;;;1.17;1.17;;;12.50;99.90;;;;;;5053156;28;20194;-69
2023/08/07 06:55:42;;;;;;;1.23;0.80;;;;;;;;;;5053946;28;20408;-70
2023/08/07 06:58:08;;;;;;;0.60;0.60;;;12.40;99.90;;;;;;5056350;28;20451;-69
2023/08/07 07:00:35;;;;;;;1.23;1.23;;;12.30;99.90;;;;;;5057513;28;20428;-72
2023/08/07 07:03:02;;;;;;;0.70;0.70;;;12.60;99.90;;;;;;5056809;28;20185;-71
2023/08/07 07:05:30;;;;;;;0.60;0.60;;;12.60;99.90;;;;;;5055105;28;20895;-70
2023/08/07 07:07:57;;;;;;;1.23;0.53;;;12.50;99.90;;;;;;5057241;28;20417;-71
2023/08/07 07:10:23;;;;;;;0.63;0.63;;;12.80;99.90;;;;;;5056148;28;20435;-70
2023/08/07 07:12:49;;;;;;;0.70;0.70;;;12.60;99.90;;;;;;5056546;28;20453;-70
2023/08/07 07:15:15;;;;;;;0.90;0.90;;;12.70;99.90;;;;;;5056552;28;20440;-70
2023/08/07 07:17:41;;;;;;;0.90;0.90;;;12.50;99.90;;;;;;5056601;28;20405;-70
2023/08/07 07:20:11;;;;;;;2.30;2.20;;;12.60;99.90;;;;;;5056547;28;20404;-70
2023/08/07 07:22:37;;;;;;;0.70;0.70;;;12.60;99.90;;;;;;5056451;28;20751;-71
2023/08/07 07:25:03;;;;;;;0.30;0.30;;;13.00;99.90;;;;;;5056557;28;20411;-71
2023/08/07 07:27:28;;;;;;;0.93;0.93;;;12.90;99.90;;;;;;5055107;28;20166;-71
2023/08/07 07:29:54;;;;;;;0.50;0.50;;;;;;;;;;5055250;28;20403;-70
2023/08/07 07:32:20;;;;;;;1.03;0.60;;;12.90;99.90;;;;;;5054942;28;20213;-72
2023/08/07 07:34:46;;;;;;;0.73;0.73;;;13.30;99.90;;;;;;5055410;28;20832;-71
2023/08/07 07:37:14;;;;;;;0.40;0.40;;;;;;;;;;5055657;28;20170;-71
2023/08/07 07:39:40;;;;;;;1.43;1.37;;;;;;;;;;5055947;28;20164;-72
2023/08/07 07:42:07;;;;;;;0.80;0.80;;;13.30;99.90;;;;;;5055255;28;20435;-72
2023/08/07 07:44:33;;;;;;;0.80;0.80;;;13.50;99.90;;;;;;5055468;28;20412;-71
2023/08/07 07:46:59;;;;;;;0.30;0.30;;;13.70;99.90;;;;;;5055856;28;20407;-71
2023/08/07 07:49:25;;;;;;;0.60;0.50;;;13.90;99.90;;;;;;5055805;28;20773;-72
2023/08/07 07:51:50;;;;;;;1.27;1.23;;;14.90;99.90;;;;;;5055434;28;20207;-71
2023/08/07 07:54:16;;;;;;;1.37;0.90;;;15.30;99.90;;;;;;5056067;28;20204;-71
2023/08/07 07:56:43;;;;;;;0.80;0.80;;;15.60;99.90;;;;;;5054537;28;20208;-71
2023/08/07 07:59:08;;;;;;;0.50;0.50;;;16.20;99.10;;;;;;5055749;28;20181;-72
2023/08/07 08:01:35;;;;;;;1.07;1.07;;;;;;;;;;5054644;28;20784;-70
2023/08/07 08:04:01;;;;;;;2.10;0.90;;;16.20;99.90;;;;;;5054381;28;20177;-70
2023/08/07 08:06:27;;;;;;;0.73;0.73;;;;;;;;;;5054919;28;20553;-69
2023/08/07 08:08:52;;;;;;;0.70;0.67;;;15.90;96.90;;;;;;5054012;28;20224;-71
2023/08/07 08:11:18;;;;;;;0.57;0.57;;;15.90;97.50;;;;;;5055448;28;20523;-70
2023/08/07 08:13:44;;;;;;;0.50;0.50;;;15.90;97.10;;;;;;5055406;28;20339;-70
2023/08/07 08:16:10;;;;;;;0.50;0.50;;;;;;;;;;5055567;28;20223;-72
2023/08/07 08:18:35;;;;;;;0.40;0.40;;;15.70;96.20;;;;;;5055511;28;20232;-72
2023/08/07 08:21:01;;;;;;;0.43;0.43;;;15.60;98.00;;;;;;5055223;28;20465;-71
2023/08/07 08:23:26;;;;;;;0.50;0.50;;;15.60;99.90;;;;;;5055410;28;20189;-72
2023/08/07 08:25:52;;;;;;;0.60;0.60;;;15.70;98.20;;;;;;5055084;28;20184;-71
2023/08/07 08:28:18;;;;;;;1.07;0.53;;;15.70;99.90;;;;;;5055354;28;20171;-71
2023/08/07 08:30:44;;;;;;;1.03;0.97;;;15.80;97.30;;;;;;5055169;28;20225;-70
2023/08/07 08:33:12;;;;;;;0.93;0.83;;;15.60;96.90;;;;;;5055089;28;20447;-72
2023/08/07 08:35:38;;;;;;;0.40;0.40;;;15.60;96.90;;;;;;5055252;28;20204;-71
2023/08/07 08:38:04;;;;;;;0.80;0.80;;;15.40;97.20;;;;;;5055229;28;20412;-70
2023/08/07 08:40:31;;;;;;;0.97;0.93;;;15.20;99.90;;;;;;5055125;28;20428;-70
2023/08/07 08:43:00;;;;;;;1.27;1.17;;;14.70;99.90;;;;;;5054821;28;20178;-70
2023/08/07 08:45:27;;;;;;;0.40;0.40;;;14.90;99.20;;;;;;5054978;28;20412;-72
2023/08/07 08:48:00;;;;;;;3.83;0.73;;;14.90;99.50;;;;;;5055105;28;20758;-70
2023/08/07 08:50:26;;;;;;;0.40;0.40;;;14.90;99.80;;;;;;5054846;28;20448;-70
2023/08/07 08:52:55;;;;;;;0.43;0.43;;;14.90;99.10;;;;;;5054677;28;21002;-70
2023/08/07 08:55:21;;;;;;;0.47;0.47;;;14.80;99.90;;;;;;5055008;28;20886;-71
2023/08/07 08:57:48;;;;;;;1.10;0.70;;;15.00;99.90;;;;;;5054599;28;20754;-72
2023/08/07 09:00:19;;;;;;;1.10;0.57;;;15.20;99.90;;;;;;5054653;28;20419;-71
2023/08/07 09:02:46;;;;;;;3.00;0.63;;;14.90;99.90;;;;;;5054513;28;20408;-72
2023/08/07 09:05:12;;;;;;;0.53;0.53;;;15.50;99.90;;;;;;5054587;28;20409;-70
2023/08/07 09:07:38;;;;;;;0.30;0.30;;;16.10;99.90;;;;;;5054705;28;20408;-72
2023/08/07 09:10:04;;;;;;;0.70;0.50;;;16.10;99.90;;;;;;5054364;28;20532;-72
2023/08/07 09:12:32;;;;;;;0.80;0.80;;;17.00;98.90;;;;;;5054118;28;20769;-71
2023/08/07 09:14:58;;;;;;;0.57;0.57;;;17.00;97.70;;;;;;5054453;28;20448;-72
2023/08/07 09:17:29;;;;;;;0.40;0.40;;;17.40;99.90;;;;;;5054453;28;20933;-72
2023/08/07 09:19:55;;;;;;;0.53;0.53;;;18.10;99.90;;;;;;5053937;28;20409;-72
2023/08/07 09:22:21;;;;;;;0.43;0.43;;;18.00;99.90;;;;;;5054004;28;20417;-72
2023/08/07 09:24:47;;;;;;;0.50;0.50;;;18.70;99.90;;;;;;5054150;28;20779;-70
2023/08/07 09:27:14;;;;;;;0.50;0.50;;;18.70;95.80;;;;;;5054122;28;20504;-72
2023/08/07 09:29:40;;;;;;;0.60;0.60;;;;;;;;;;5054251;28;20423;-72
2023/08/07 09:32:13;;;;;;;0.50;0.50;;;19.00;92.20;;;;;;5053822;28;20447;-72
2023/08/07 09:34:40;;;;;;;0.60;0.60;;;19.20;92.10;;;;;;5054063;28;20451;-71
2023/08/07 09:37:07;;;;;;;0.53;0.53;;;19.20;93.40;;;;;;5054126;28;20856;-72
2023/08/07 09:39:33;;;;;;;0.90;0.90;;;18.10;99.90;;;;;;5053924;28;20402;-71
2023/08/07 09:41:59;;;;;;;0.60;0.60;;;18.20;91.90;;;;;;5053660;28;20772;-72
2023/08/07 09:44:24;;;;;;;0.60;0.60;;;17.70;99.90;;;;;;5053945;28;20175;-72
2023/08/07 09:46:50;;;;;;;0.80;0.80;;;18.10;95.00;;;;;;5053903;28;20421;-71
2023/08/07 09:49:16;;;;;;;0.60;0.50;;;17.30;99.90;;;;;;5053541;28;20548;-71
2023/08/07 09:51:42;;;;;;;0.70;0.60;;;17.40;92.70;;;;;;5053615;28;20200;-72
2023/08/07 09:54:08;;;;;;;0.37;0.37;;;17.30;99.90;;;;;;5053561;28;20257;-71
2023/08/07 09:56:35;;;;;;;1.33;1.33;;;17.20;94.00;;;;;;5053689;28;20405;-70
2023/08/07 09:59:01;;;;;;;0.63;0.63;;;17.20;93.50;;;;;;5053858;28;20170;-72
2023/08/07 10:01:27;;;;;;;0.70;0.70;;;17.30;93.20;;;;;;5053306;28;20808;-71
2023/08/07 10:03:53;;;;;;;0.43;0.43;;;17.90;93.80;;;;;;5053486;28;20709;-72
2023/08/07 10:06:19;;;;;;;0.50;0.50;;;18.30;93.20;;;;;;5053671;28;20648;-72
2023/08/07 10:08:45;;;;;;;1.30;1.23;;;18.60;94.20;;;;;;5053617;28;20413;-71
2023/08/07 10:11:11;;;;;;;0.60;0.60;;;18.90;93.90;;;;;;5053113;28;20808;-72
2023/08/07 10:13:38;;;;;;;0.63;0.63;;;18.90;91.20;;;;;;5053507;28;20475;-72
2023/08/07 10:16:04;;;;;;;0.53;0.53;;;18.90;91.20;;;;;;5053515;28;20396;-71
2023/08/07 10:18:30;;;;;;;1.07;0.87;;;19.00;91.30;;;;;;5053341;28;20788;-71
2023/08/07 10:20:59;;;;;;;0.40;0.40;;;18.80;99.90;;;;;;5053217;28;20440;-71
2023/08/07 10:23:24;;;;;;;1.00;1.00;;;19.10;91.60;;;;;;5053497;28;20260;-72
2023/08/07 10:25:51;;;;;;;0.87;0.80;;;19.00;88.90;;;;;;5053374;28;20420;-72
2023/08/07 10:28:19;;;;;;;0.67;0.60;;;19.10;90.50;;;;;;5053394;28;20191;-72
2023/08/07 10:30:44;;;;;;;0.50;0.50;;;19.40;89.70;;;;;;5052123;28;20845;-72
2023/08/07 10:33:13;;;;;;;0.50;0.50;;;19.60;89.40;;;;;;5053173;28;20452;-71
2023/08/07 10:35:46;;;;;;;0.37;0.37;;;19.30;89.60;;;;;;5053149;28;20185;-72
2023/08/07 10:38:12;;;;;;;0.40;0.40;;;19.50;91.20;;;;;;5053329;28;20413;-72
2023/08/07 10:41:06;;;;;;;0.80;0.80;;;20.40;99.90;;;;;;5053216;28;20468;-71
2023/08/07 10:43:39;;;;;;;0.40;0.40;;;20.30;87.30;;;;;;5052990;28;20181;-72
2023/08/07 10:46:06;;;;;;;0.67;0.40;;;19.80;91.10;;;;;;5053247;28;20406;-72
2023/08/07 10:48:39;;;;;;;0.50;0.40;;;19.20;99.90;;;;;;5052972;28;20823;-72
2023/08/07 10:51:06;;;;;;;0.60;0.60;;;19.20;88.80;;;;;;5053154;28;20436;-72
2023/08/07 10:53:32;;;;;;;0.50;0.50;;;19.40;99.90;;;;;;5052770;28;20464;-71
2023/08/07 10:56:29;;;;;;;0.97;0.60;;;19.40;88.90;;;;;;5052987;28;20500;-72
2023/08/07 10:58:55;;;;;;;0.50;0.50;;;19.30;90.80;;;;;;5053050;28;20462;-72
2023/08/07 11:01:29;;;;;;;0.60;0.60;;;18.00;99.90;;;;;;5052571;28;20434;-72
2023/08/07 11:03:57;;;;;;;0.47;0.47;;;17.70;91.50;;;;;;5052820;28;20174;-72
2023/08/07 11:06:27;;;;;;;0.60;0.57;;;17.40;92.50;;;;;;5052923;28;20810;-72
2023/08/07 11:08:53;;;;;;;0.40;0.40;;;;;;;;;;5052779;28;20425;-71
2023/08/07 11:11:19;;;;;;;0.67;0.67;;;;;;;;;;5052625;28;20424;-72
2023/08/07 11:13:45;;;;;;;0.40;0.40;;;19.00;91.00;;;;;;5052638;28;20513;-72
2023/08/07 11:16:11;;;;;;;0.50;0.50;;;19.20;89.30;;;;;;5052944;28;20808;-72
2023/08/07 11:18:40;;;;;;;0.40;0.40;;;18.70;90.80;;;;;;5052665;28;20486;-72
2023/08/07 11:21:07;;;;;;;0.70;0.70;;;18.10;99.90;;;;;;5052492;28;20425;-72
2023/08/07 11:23:33;;;;;;;0.53;0.53;;;17.90;99.90;;;;;;5052634;28;20415;-72
2023/08/07 11:25:58;;;;;;;1.13;1.03;;;18.10;91.90;;;;;;5052576;28;20423;-72
2023/08/07 11:28:24;;;;;;;0.40;0.40;;;18.40;91.20;;;;;;5052704;28;20608;-71
2023/08/07 11:30:55;;;;;;;1.80;0.70;;;18.60;90.10;;;;;;5052457;28;20532;-71
2023/08/07 11:33:24;;;;;;;0.57;0.57;;;18.60;90.50;;;;;;5052339;28;20699;-71
2023/08/07 11:35:50;;;;;;;0.40;0.40;;;18.70;92.30;;;;;;5052526;28;20400;-71
2023/08/07 11:38:48;;;;;;;0.50;0.50;;;19.00;91.00;;;;;;5052523;28;20936;-72
2023/08/07 11:41:16;;;;;;;0.33;0.33;;;18.90;91.00;;;;;;5050930;28;20443;-70
2023/08/07 11:43:43;;;;;;;0.60;0.53;;;18.90;91.40;;;;;;5056192;28;20412;-73
2023/08/07 11:46:10;;;;;;;0.67;0.67;;;19.20;91.90;;;;;;5055955;28;20828;-72
2023/08/07 11:48:37;;;;;;;0.50;0.50;;;19.00;88.00;;;;;;5055866;28;20418;-73
2023/08/07 11:51:04;;;;;;;0.80;0.80;;;19.10;90.70;;;;;;5055871;28;20465;-72
2023/08/07 11:53:37;;;;;;;0.70;0.70;;;19.20;91.40;;;;;;5055903;28;20494;-71
2023/08/07 11:56:14;;;;;;;0.87;0.87;;;19.20;87.30;;;;;;5056032;28;20737;-73
2023/08/07 11:58:46;;;;;;;0.67;0.67;;;19.40;90.10;;;;;;5054496;28;20871;-71
2023/08/07 12:01:16;;;;;;;0.60;0.60;;;19.70;90.40;;;;;;5055797;28;20433;-72
2023/08/07 12:03:51;;;;;;;1.53;1.43;;;19.40;88.50;;;;;;5055895;28;20500;-73
2023/08/07 12:06:18;;;;;;;1.60;0.50;;;19.00;89.70;;;;;;5055821;28;20486;-71
2023/08/07 12:08:43;;;;;;;0.50;0.50;;;19.20;91.00;;;;;;5055773;28;20417;-72
2023/08/07 12:11:11;;;;;;;0.60;0.60;;;19.50;88.50;;;;;;5055501;28;20451;-72
2023/08/07 12:13:42;;;;;;;0.70;0.40;;;19.60;90.00;;;;;;5055429;28;20205;-72
2023/08/07 12:16:15;;;;;;;0.73;0.73;;;19.70;91.00;;;;;;5055850;28;20785;-72
2023/08/07 12:18:50;;;;;;;0.30;0.30;;;20.00;89.20;;;;;;5055441;28;20412;-71
2023/08/07 12:21:20;;;;;;;0.30;0.30;;;20.20;86.20;;;;;;5055214;28;20421;-71
2023/08/07 12:23:49;;;;;;;0.77;0.77;;;19.80;89.20;;;;;;5055620;28;20413;-73
2023/08/07 12:26:15;;;;;;;0.70;0.70;;;19.90;90.50;;;;;;5055230;28;20412;-72
2023/08/07 12:28:42;;;;;;;0.83;0.83;;;20.20;87.20;;;;;;5055473;28;20775;-72
2023/08/07 12:31:07;;;;;;;0.93;0.73;;;20.30;84.20;;;;;;5055076;28;20447;-72
2023/08/07 12:33:33;;;;;;;0.60;0.60;;;19.40;86.00;;;;;;5055155;28;21078;-71
2023/08/07 12:36:00;;;;;;;0.40;0.40;;;19.10;87.60;;;;;;5055206;28;20173;-72
2023/08/07 12:38:26;;;;;;;0.60;0.60;;;18.80;88.30;;;;;;5055079;28;20409;-73
2023/08/07 12:40:52;;;;;;;0.50;0.50;;;18.60;90.50;;;;;;5054883;28;20898;-71
2023/08/07 12:43:18;;;;;;;0.30;0.30;;;18.50;88.40;;;;;;5055061;28;20465;-72
2023/08/07 12:45:43;;;;;;;0.50;0.40;;;18.50;90.80;;;;;;5055133;28;20489;-71
2023/08/07 12:48:10;;;;;;;1.13;0.63;;;18.50;91.40;;;;;;5054914;28;20180;-72
2023/08/07 12:50:35;;;;;;;0.50;0.50;;;18.50;90.50;;;;;;5054677;28;20678;-71
2023/08/07 12:53:02;;;;;;;0.67;0.67;;;18.40;91.80;;;;;;5054093;28;20534;-71